sensor_id;sensor_type;location;lat;lon;timestamp;pressure;altitude;pressure_sealevel;temperature;humidity
56681;BME280;42558;52.388;13.390;2023-04-19T00:01:10;102264.42;;;5.27;82.66
56681;BME280;42558;52.388;13.390;2023-04-19T00:03:38;102267.62;;;5.27;82.56
56681;BME280;42558;52.388;13.390;2023-04-19T00:06:07;102258.52;;;5.30;82.84
56681;BME280;42558;52.388;13.390;2023-04-19T00:08:38;102253.50;;;5.30;82.38
56681;BME280;42558;52.388;13.390;2023-04-19T00:11:08;102252.30;;;5.31;81.42
56681;BME280;42558;52.388;13.390;2023-04-19T00:13:35;102248.80;;;5.31;81.14
56681;BME280;42558;52.388;13.390;2023-04-19T00:16:04;102250.48;;;5.30;80.87
56681;BME280;42558;52.388;13.390;2023-04-19T00:18:32;102245.52;;;5.28;80.36
56681;BME280;42558;52.388;13.390;2023-04-19T00:21:00;102246.34;;;5.30;79.93
56681;BME280;42558;52.388;13.390;2023-04-19T00:23:29;102245.88;;;5.28;79.84
56681;BME280;42558;52.388;13.390;2023-04-19T00:25:57;102242.96;;;5.26;79.32
56681;BME280;42558;52.388;13.390;2023-04-19T00:28:26;102241.41;;;5.27;78.98
56681;BME280;42558;52.388;13.390;2023-04-19T00:30:54;102241.14;;;5.25;78.28
56681;BME280;42558;52.388;13.390;2023-04-19T00:33:23;102244.33;;;5.26;78.13
56681;BME280;42558;52.388;13.390;2023-04-19T00:35:51;102244.14;;;5.26;77.58
56681;BME280;42558;52.388;13.390;2023-04-19T00:38:20;102241.26;;;5.24;77.11
56681;BME280;42558;52.388;13.390;2023-04-19T00:40:48;102242.91;;;5.25;76.28
56681;BME280;42558;52.388;13.390;2023-04-19T00:43:18;102242.52;;;5.21;76.60
56681;BME280;42558;52.388;13.390;2023-04-19T00:45:48;102238.58;;;5.19;75.92
56681;BME280;42558;52.388;13.390;2023-04-19T00:48:18;102243.51;;;5.17;76.10
56681;BME280;42558;52.388;13.390;2023-04-19T00:50:48;102240.61;;;5.13;75.06
56681;BME280;42558;52.388;13.390;2023-04-19T00:53:18;102237.91;;;5.11;74.22
56681;BME280;42558;52.388;13.390;2023-04-19T00:55:48;102236.87;;;5.11;74.08
56681;BME280;42558;52.388;13.390;2023-04-19T00:58:21;102236.06;;;5.07;73.86
56681;BME280;42558;52.388;13.390;2023-04-19T01:00:51;102235.42;;;5.07;73.11
56681;BME280;42558;52.388;13.390;2023-04-19T01:03:21;102240.69;;;5.11;73.04
56681;BME280;42558;52.388;13.390;2023-04-19T01:05:52;102238.58;;;5.13;72.58
56681;BME280;42558;52.388;13.390;2023-04-19T01:08:22;102235.17;;;5.18;71.87
56681;BME280;42558;52.388;13.390;2023-04-19T01:10:52;102229.81;;;5.22;71.14
56681;BME280;42558;52.388;13.390;2023-04-19T01:13:22;102234.23;;;5.20;71.40
56681;BME280;42558;52.388;13.390;2023-04-19T01:15:54;102232.45;;;5.16;71.66
56681;BME280;42558;52.388;13.390;2023-04-19T01:18:24;102236.43;;;5.13;71.62
56681;BME280;42558;52.388;13.390;2023-04-19T01:20:58;102233.91;;;5.11;70.90
56681;BME280;42558;52.388;13.390;2023-04-19T01:23:28;102230.97;;;5.12;70.19
56681;BME280;42558;52.388;13.390;2023-04-19T01:25:57;102235.23;;;5.07;70.87
56681;BME280;42558;52.388;13.390;2023-04-19T01:28:27;102231.64;;;5.05;69.75
56681;BME280;42558;52.388;13.390;2023-04-19T01:30:57;102234.60;;;5.06;69.30
56681;BME280;42558;52.388;13.390;2023-04-19T01:33:27;102235.58;;;5.01;70.07
56681;BME280;42558;52.388;13.390;2023-04-19T01:35:57;102234.53;;;4.92;69.81
56681;BME280;42558;52.388;13.390;2023-04-19T01:38:27;102231.45;;;4.90;69.97
56681;BME280;42558;52.388;13.390;2023-04-19T01:40:57;102231.41;;;4.87;69.91
56681;BME280;42558;52.388;13.390;2023-04-19T01:43:27;102231.21;;;4.81;70.03
56681;BME280;42558;52.388;13.390;2023-04-19T01:45:56;102231.67;;;4.71;70.48
56681;BME280;42558;52.388;13.390;2023-04-19T01:48:26;102227.59;;;4.64;70.39
56681;BME280;42558;52.388;13.390;2023-04-19T01:50:56;102224.70;;;4.60;70.55
56681;BME280;42558;52.388;13.390;2023-04-19T01:53:26;102226.61;;;4.51;71.10
56681;BME280;42558;52.388;13.390;2023-04-19T01:55:56;102223.29;;;4.48;71.22
56681;BME280;42558;52.388;13.390;2023-04-19T01:58:26;102222.80;;;4.43;71.47
56681;BME280;42558;52.388;13.390;2023-04-19T02:00:55;102223.75;;;4.33;72.09
56681;BME280;42558;52.388;13.390;2023-04-19T02:03:25;102222.27;;;4.29;72.42
56681;BME280;42558;52.388;13.390;2023-04-19T02:05:55;102224.33;;;4.26;72.63
56681;BME280;42558;52.388;13.390;2023-04-19T02:08:26;102225.73;;;4.21;72.73
56681;BME280;42558;52.388;13.390;2023-04-19T02:10:56;102227.16;;;4.18;72.98
56681;BME280;42558;52.388;13.390;2023-04-19T02:13:26;102223.65;;;4.15;73.26
56681;BME280;42558;52.388;13.390;2023-04-19T02:15:55;102216.19;;;4.04;74.17
56681;BME280;42558;52.388;13.390;2023-04-19T02:18:25;102218.56;;;3.98;74.21
56681;BME280;42558;52.388;13.390;2023-04-19T02:20:55;102216.34;;;3.95;74.64
56681;BME280;42558;52.388;13.390;2023-04-19T02:23:25;102215.59;;;3.90;75.04
56681;BME280;42558;52.388;13.390;2023-04-19T02:25:55;102214.17;;;3.83;75.29
56681;BME280;42558;52.388;13.390;2023-04-19T02:28:24;102213.52;;;3.79;75.72
56681;BME280;42558;52.388;13.390;2023-04-19T02:30:54;102212.35;;;3.77;75.81
56681;BME280;42558;52.388;13.390;2023-04-19T02:33:25;102215.80;;;3.74;76.06
56681;BME280;42558;52.388;13.390;2023-04-19T02:35:58;102210.75;;;3.74;76.12
56681;BME280;42558;52.388;13.390;2023-04-19T02:38:28;102211.08;;;3.71;76.21
56681;BME280;42558;52.388;13.390;2023-04-19T02:40:58;102209.82;;;3.70;76.40
56681;BME280;42558;52.388;13.390;2023-04-19T02:43:29;102208.15;;;3.66;76.68
56681;BME280;42558;52.388;13.390;2023-04-19T02:46:00;102208.02;;;3.59;76.94
56681;BME280;42558;52.388;13.390;2023-04-19T02:48:30;102203.52;;;3.53;77.29
56681;BME280;42558;52.388;13.390;2023-04-19T02:51:00;102200.53;;;3.53;77.36
56681;BME280;42558;52.388;13.390;2023-04-19T02:53:30;102203.56;;;3.48;78.18
56681;BME280;42558;52.388;13.390;2023-04-19T02:56:00;102202.54;;;3.43;78.57
56681;BME280;42558;52.388;13.390;2023-04-19T02:58:30;102202.77;;;3.39;78.83
56681;BME280;42558;52.388;13.390;2023-04-19T03:01:00;102199.31;;;3.37;79.05
56681;BME280;42558;52.388;13.390;2023-04-19T03:03:30;102198.37;;;3.33;79.05
56681;BME280;42558;52.388;13.390;2023-04-19T03:06:01;102194.54;;;3.25;79.92
56681;BME280;42558;52.388;13.390;2023-04-19T03:08:31;102188.44;;;3.20;80.61
56681;BME280;42558;52.388;13.390;2023-04-19T03:11:01;102187.66;;;3.16;81.14
56681;BME280;42558;52.388;13.390;2023-04-19T03:13:31;102180.27;;;3.09;82.27
56681;BME280;42558;52.388;13.390;2023-04-19T03:16:01;102184.19;;;3.14;82.35
56681;BME280;42558;52.388;13.390;2023-04-19T03:18:31;102185.17;;;3.10;82.60
56681;BME280;42558;52.388;13.390;2023-04-19T03:21:01;102180.47;;;3.13;82.58
56681;BME280;42558;52.388;13.390;2023-04-19T03:23:32;102175.70;;;3.06;83.38
56681;BME280;42558;52.388;13.390;2023-04-19T03:26:01;102176.39;;;3.03;83.59
56681;BME280;42558;52.388;13.390;2023-04-19T03:28:31;102171.02;;;2.98;84.12
56681;BME280;42558;52.388;13.390;2023-04-19T03:31:00;102170.92;;;2.94;84.62
56681;BME280;42558;52.388;13.390;2023-04-19T03:33:28;102172.54;;;2.90;84.87
56681;BME280;42558;52.388;13.390;2023-04-19T03:35:57;102169.41;;;2.84;85.29
56681;BME280;42558;52.388;13.390;2023-04-19T03:38:25;102166.89;;;2.78;86.13
56681;BME280;42558;52.388;13.390;2023-04-19T03:40:54;102163.73;;;2.75;86.56
56681;BME280;42558;52.388;13.390;2023-04-19T03:43:25;102161.16;;;2.75;86.66
56681;BME280;42558;52.388;13.390;2023-04-19T03:45:53;102155.86;;;2.72;86.65
56681;BME280;42558;52.388;13.390;2023-04-19T03:48:22;102158.98;;;2.64;87.19
56681;BME280;42558;52.388;13.390;2023-04-19T03:50:51;102159.08;;;2.60;87.56
56681;BME280;42558;52.388;13.390;2023-04-19T03:53:19;102158.63;;;2.56;87.93
56681;BME280;42558;52.388;13.390;2023-04-19T03:55:47;102158.10;;;2.54;88.22
56681;BME280;42558;52.388;13.390;2023-04-19T03:58:16;102159.08;;;2.53;88.17
56681;BME280;42558;52.388;13.390;2023-04-19T04:00:44;102160.92;;;2.52;88.76
56681;BME280;42558;52.388;13.390;2023-04-19T04:03:13;102158.06;;;2.58;88.56
56681;BME280;42558;52.388;13.390;2023-04-19T04:05:41;102155.45;;;2.60;88.68
56681;BME280;42558;52.388;13.390;2023-04-19T04:08:10;102155.75;;;2.65;88.71
56681;BME280;42558;52.388;13.390;2023-04-19T04:10:38;102153.04;;;2.68;88.97
56681;BME280;42558;52.388;13.390;2023-04-19T04:13:06;102156.00;;;2.69;89.04
56681;BME280;42558;52.388;13.390;2023-04-19T04:15:35;102157.23;;;2.64;89.61
56681;BME280;42558;52.388;13.390;2023-04-19T04:18:04;102157.21;;;2.64;90.54
56681;BME280;42558;52.388;13.390;2023-04-19T04:20:37;102154.16;;;2.67;90.85
56681;BME280;42558;52.388;13.390;2023-04-19T04:23:07;102156.48;;;2.65;91.16
56681;BME280;42558;52.388;13.390;2023-04-19T04:25:37;102156.67;;;2.66;91.72
56681;BME280;42558;52.388;13.390;2023-04-19T04:28:07;102150.38;;;2.70;92.20
56681;BME280;42558;52.388;13.390;2023-04-19T04:30:38;102150.56;;;2.73;92.59
56681;BME280;42558;52.388;13.390;2023-04-19T04:33:09;102146.73;;;2.75;93.01
56681;BME280;42558;52.388;13.390;2023-04-19T04:35:40;102141.45;;;2.80;93.24
56681;BME280;42558;52.388;13.390;2023-04-19T04:38:11;102146.44;;;2.84;93.42
56681;BME280;42558;52.388;13.390;2023-04-19T04:40:54;102143.27;;;2.81;93.51
56681;BME280;42558;52.388;13.390;2023-04-19T04:43:25;102140.77;;;2.80;94.20
56681;BME280;42558;52.388;13.390;2023-04-19T04:45:58;102135.27;;;2.83;94.39
56681;BME280;42558;52.388;13.390;2023-04-19T04:48:28;102137.42;;;2.87;94.30
56681;BME280;42558;52.388;13.390;2023-04-19T04:50:59;102133.86;;;2.93;94.34
56681;BME280;42558;52.388;13.390;2023-04-19T04:53:29;102131.85;;;2.94;94.58
56681;BME280;42558;52.388;13.390;2023-04-19T04:55:59;102130.44;;;2.96;95.15
56681;BME280;42558;52.388;13.390;2023-04-19T04:58:29;102128.72;;;2.99;95.17
56681;BME280;42558;52.388;13.390;2023-04-19T05:00:59;102131.79;;;3.04;94.99
56681;BME280;42558;52.388;13.390;2023-04-19T05:03:28;102131.16;;;3.08;95.17
56681;BME280;42558;52.388;13.390;2023-04-19T05:05:58;102127.06;;;3.14;94.88
56681;BME280;42558;52.388;13.390;2023-04-19T05:08:28;102132.08;;;3.19;94.67
56681;BME280;42558;52.388;13.390;2023-04-19T05:10:58;102132.98;;;3.17;95.26
56681;BME280;42558;52.388;13.390;2023-04-19T05:13:28;102127.72;;;3.24;94.87
56681;BME280;42558;52.388;13.390;2023-04-19T05:15:58;102123.12;;;3.31;94.54
56681;BME280;42558;52.388;13.390;2023-04-19T05:18:28;102118.02;;;3.35;94.49
56681;BME280;42558;52.388;13.390;2023-04-19T05:20:58;102119.17;;;3.37;94.50
56681;BME280;42558;52.388;13.390;2023-04-19T05:23:28;102115.85;;;3.44;94.26
56681;BME280;42558;52.388;13.390;2023-04-19T05:25:58;102114.23;;;3.52;94.01
56681;BME280;42558;52.388;13.390;2023-04-19T05:28:27;102113.05;;;3.55;93.39
56681;BME280;42558;52.388;13.390;2023-04-19T05:30:57;102114.55;;;3.66;93.49
56681;BME280;42558;52.388;13.390;2023-04-19T05:33:27;102115.45;;;3.69;92.80
56681;BME280;42558;52.388;13.390;2023-04-19T05:35:57;102112.81;;;3.85;92.55
56681;BME280;42558;52.388;13.390;2023-04-19T05:38:27;102110.58;;;3.82;92.19
56681;BME280;42558;52.388;13.390;2023-04-19T05:40:57;102103.41;;;3.95;92.26
56681;BME280;42558;52.388;13.390;2023-04-19T05:43:27;102106.39;;;3.96;91.74
56681;BME280;42558;52.388;13.390;2023-04-19T05:45:57;102101.07;;;4.00;91.61
56681;BME280;42558;52.388;13.390;2023-04-19T05:48:26;102101.66;;;4.10;91.34
56681;BME280;42558;52.388;13.390;2023-04-19T05:50:56;102099.98;;;4.16;90.63
56681;BME280;42558;52.388;13.390;2023-04-19T05:53:27;102098.15;;;4.18;90.64
56681;BME280;42558;52.388;13.390;2023-04-19T05:55:57;102096.13;;;4.25;90.53
56681;BME280;42558;52.388;13.390;2023-04-19T05:58:27;102098.17;;;4.41;89.83
56681;BME280;42558;52.388;13.390;2023-04-19T06:00:57;102094.69;;;4.50;89.75
56681;BME280;42558;52.388;13.390;2023-04-19T06:03:27;102091.70;;;4.61;88.54
56681;BME280;42558;52.388;13.390;2023-04-19T06:06:01;102095.35;;;4.73;87.92
56681;BME280;42558;52.388;13.390;2023-04-19T06:08:31;102091.64;;;4.81;86.96
56681;BME280;42558;52.388;13.390;2023-04-19T06:11:00;102091.98;;;4.90;86.67
56681;BME280;42558;52.388;13.390;2023-04-19T06:13:44;102097.14;;;4.98;85.88
56681;BME280;42558;52.388;13.390;2023-04-19T06:16:14;102087.34;;;5.00;85.25
56681;BME280;42558;52.388;13.390;2023-04-19T06:18:44;102086.45;;;5.15;85.12
56681;BME280;42558;52.388;13.390;2023-04-19T06:21:14;102085.20;;;5.26;84.08
56681;BME280;42558;52.388;13.390;2023-04-19T06:23:44;102082.41;;;5.48;84.31
56681;BME280;42558;52.388;13.390;2023-04-19T06:26:14;102075.91;;;5.83;82.71
56681;BME280;42558;52.388;13.390;2023-04-19T06:28:44;102078.77;;;5.81;81.79
56681;BME280;42558;52.388;13.390;2023-04-19T06:31:13;102074.69;;;5.89;81.32
56681;BME280;42558;52.388;13.390;2023-04-19T06:33:43;102077.10;;;5.94;80.75
56681;BME280;42558;52.388;13.390;2023-04-19T06:36:13;102071.07;;;6.06;79.87
56681;BME280;42558;52.388;13.390;2023-04-19T06:38:43;102063.58;;;6.19;79.60
56681;BME280;42558;52.388;13.390;2023-04-19T06:41:14;102066.02;;;6.36;78.98
56681;BME280;42558;52.388;13.390;2023-04-19T06:43:45;102063.36;;;6.45;77.47
56681;BME280;42558;52.388;13.390;2023-04-19T06:46:14;102058.98;;;6.45;77.97
56681;BME280;42558;52.388;13.390;2023-04-19T06:48:44;102060.60;;;6.63;78.27
56681;BME280;42558;52.388;13.390;2023-04-19T06:51:14;102057.30;;;6.96;75.98
56681;BME280;42558;52.388;13.390;2023-04-19T06:53:44;102060.19;;;6.97;75.13
56681;BME280;42558;52.388;13.390;2023-04-19T06:56:14;102058.05;;;6.96;74.98
56681;BME280;42558;52.388;13.390;2023-04-19T06:58:44;102052.55;;;7.13;74.73
56681;BME280;42558;52.388;13.390;2023-04-19T07:01:14;102045.23;;;7.35;73.61
56681;BME280;42558;52.388;13.390;2023-04-19T07:03:44;102042.36;;;7.91;72.44
56681;BME280;42558;52.388;13.390;2023-04-19T07:06:13;102034.75;;;7.93;70.69
56681;BME280;42558;52.388;13.390;2023-04-19T07:08:42;102035.02;;;7.75;70.56
56681;BME280;42558;52.388;13.390;2023-04-19T07:11:16;102032.91;;;7.87;70.02
56681;BME280;42558;52.388;13.390;2023-04-19T07:13:49;102024.54;;;8.03;68.72
56681;BME280;42558;52.388;13.390;2023-04-19T07:16:20;102023.66;;;8.07;68.63
56681;BME280;42558;52.388;13.390;2023-04-19T07:18:50;102020.02;;;8.08;67.30
56681;BME280;42558;52.388;13.390;2023-04-19T07:21:20;102016.64;;;8.07;67.24
56681;BME280;42558;52.388;13.390;2023-04-19T07:23:49;102016.48;;;8.44;67.01
56681;BME280;42558;52.388;13.390;2023-04-19T07:26:18;102010.59;;;8.61;66.39
56681;BME280;42558;52.388;13.390;2023-04-19T07:28:46;102005.88;;;8.91;64.35
56681;BME280;42558;52.388;13.390;2023-04-19T07:31:16;102005.56;;;9.15;63.72
56681;BME280;42558;52.388;13.390;2023-04-19T07:33:46;102000.08;;;9.18;62.57
56681;BME280;42558;52.388;13.390;2023-04-19T07:36:15;101993.58;;;9.18;61.97
56681;BME280;42558;52.388;13.390;2023-04-19T07:38:43;101994.95;;;9.17;61.58
56681;BME280;42558;52.388;13.390;2023-04-19T07:41:12;101988.73;;;9.28;61.34
56681;BME280;42558;52.388;13.390;2023-04-19T07:43:40;101988.27;;;9.25;61.37
56681;BME280;42558;52.388;13.390;2023-04-19T07:46:13;101987.09;;;9.74;60.28
56681;BME280;42558;52.388;13.390;2023-04-19T07:48:47;101976.20;;;9.64;58.40
56681;BME280;42558;52.388;13.390;2023-04-19T07:51:17;101970.53;;;9.77;58.51
56681;BME280;42558;52.388;13.390;2023-04-19T07:53:47;101969.31;;;10.06;56.64
56681;BME280;42558;52.388;13.390;2023-04-19T07:56:17;101967.66;;;10.24;56.22
56681;BME280;42558;52.388;13.390;2023-04-19T07:58:48;101965.52;;;10.43;55.70
56681;BME280;42558;52.388;13.390;2023-04-19T08:01:35;101957.96;;;10.70;54.52
56681;BME280;42558;52.388;13.390;2023-04-19T08:04:05;101963.27;;;10.66;54.66
56681;BME280;42558;52.388;13.390;2023-04-19T08:06:37;101957.89;;;10.90;53.76
56681;BME280;42558;52.388;13.390;2023-04-19T08:09:08;101954.13;;;10.77;53.95
56681;BME280;42558;52.388;13.390;2023-04-19T08:11:38;101950.76;;;10.49;53.46
56681;BME280;42558;52.388;13.390;2023-04-19T08:14:07;101945.38;;;10.57;53.11
56681;BME280;42558;52.388;13.390;2023-04-19T08:16:55;101937.52;;;10.58;52.93
56681;BME280;42558;52.388;13.390;2023-04-19T08:19:45;101933.97;;;10.91;52.74
56681;BME280;42558;52.388;13.390;2023-04-19T08:22:16;101929.48;;;10.94;52.23
56681;BME280;42558;52.388;13.390;2023-04-19T08:24:49;101928.80;;;10.88;52.54
56681;BME280;42558;52.388;13.390;2023-04-19T08:27:20;101935.20;;;11.13;51.47
56681;BME280;42558;52.388;13.390;2023-04-19T08:29:50;101934.42;;;11.11;51.14
56681;BME280;42558;52.388;13.390;2023-04-19T08:32:20;101936.19;;;10.99;51.06
56681;BME280;42558;52.388;13.390;2023-04-19T08:34:50;101927.01;;;11.22;50.53
56681;BME280;42558;52.388;13.390;2023-04-19T08:37:20;101928.21;;;10.92;50.11
56681;BME280;42558;52.388;13.390;2023-04-19T08:39:50;101919.22;;;11.15;50.77
56681;BME280;42558;52.388;13.390;2023-04-19T08:42:20;101919.02;;;11.08;50.05
56681;BME280;42558;52.388;13.390;2023-04-19T08:45:05;101921.50;;;10.80;51.48
56681;BME280;42558;52.388;13.390;2023-04-19T08:47:40;101918.14;;;11.14;50.97
56681;BME280;42558;52.388;13.390;2023-04-19T08:50:13;101918.44;;;10.73;50.94
56681;BME280;42558;52.388;13.390;2023-04-19T08:53:03;101921.13;;;10.00;52.47
56681;BME280;42558;52.388;13.390;2023-04-19T08:55:52;101925.25;;;10.02;52.86
56681;BME280;42558;52.388;13.390;2023-04-19T08:58:30;101917.98;;;10.21;53.07
56681;BME280;42558;52.388;13.390;2023-04-19T09:01:21;101913.73;;;10.79;52.02
56681;BME280;42558;52.388;13.390;2023-04-19T09:04:06;101903.90;;;11.51;51.01
56681;BME280;42558;52.388;13.390;2023-04-19T09:06:56;101903.98;;;11.79;50.27
56681;BME280;42558;52.388;13.390;2023-04-19T09:09:28;101896.70;;;11.90;49.86
56681;BME280;42558;52.388;13.390;2023-04-19T09:12:02;101893.20;;;11.46;49.89
56681;BME280;42558;52.388;13.390;2023-04-19T09:14:32;101887.69;;;12.37;50.63
56681;BME280;42558;52.388;13.390;2023-04-19T09:17:12;101878.46;;;12.35;47.71
56681;BME280;42558;52.388;13.390;2023-04-19T09:19:48;101866.59;;;12.47;48.72
56681;BME280;42558;52.388;13.390;2023-04-19T09:22:18;101863.98;;;13.12;48.02
56681;BME280;42558;52.388;13.390;2023-04-19T09:24:49;101860.59;;;11.92;48.09
56681;BME280;42558;52.388;13.390;2023-04-19T09:27:34;101857.65;;;10.91;49.41
56681;BME280;42558;52.388;13.390;2023-04-19T09:30:06;101861.59;;;10.77;50.85
56681;BME280;42558;52.388;13.390;2023-04-19T09:32:46;101860.15;;;10.36;50.67
56681;BME280;42558;52.388;13.390;2023-04-19T09:35:17;101860.06;;;10.50;50.73
56681;BME280;42558;52.388;13.390;2023-04-19T09:37:58;101853.73;;;11.33;49.83
56681;BME280;42558;52.388;13.390;2023-04-19T09:40:36;101855.56;;;11.67;50.14
56681;BME280;42558;52.388;13.390;2023-04-19T09:43:07;101842.94;;;11.49;49.68
56681;BME280;42558;52.388;13.390;2023-04-19T09:45:57;101841.23;;;11.53;49.11
56681;BME280;42558;52.388;13.390;2023-04-19T09:48:27;101842.14;;;10.91;50.63
56681;BME280;42558;52.388;13.390;2023-04-19T09:50:59;101845.02;;;11.17;51.07
56681;BME280;42558;52.388;13.390;2023-04-19T09:53:35;101832.72;;;12.09;48.67
56681;BME280;42558;52.388;13.390;2023-04-19T09:56:09;101836.70;;;11.66;48.43
56681;BME280;42558;52.388;13.390;2023-04-19T09:58:41;101843.06;;;11.81;49.29
56681;BME280;42558;52.388;13.390;2023-04-19T10:01:22;101828.95;;;11.03;50.81
56681;BME280;42558;52.388;13.390;2023-04-19T10:03:55;101830.63;;;10.89;51.33
56681;BME280;42558;52.388;13.390;2023-04-19T10:06:35;101833.11;;;11.64;49.46
56681;BME280;42558;52.388;13.390;2023-04-19T10:09:26;101826.30;;;11.60;49.05
56681;BME280;42558;52.388;13.390;2023-04-19T10:11:58;101825.30;;;11.05;50.52
56681;BME280;42558;52.388;13.390;2023-04-19T10:14:40;101830.97;;;11.00;50.98
56681;BME280;42558;52.388;13.390;2023-04-19T10:17:08;101827.16;;;11.40;49.59
56681;BME280;42558;52.388;13.390;2023-04-19T10:19:37;101824.85;;;11.92;48.55
56681;BME280;42558;52.388;13.390;2023-04-19T10:22:06;101819.46;;;12.38;47.42
56681;BME280;42558;52.388;13.390;2023-04-19T10:24:36;101812.18;;;12.92;47.91
56681;BME280;42558;52.388;13.390;2023-04-19T10:27:08;101802.33;;;13.28;46.38
56681;BME280;42558;52.388;13.390;2023-04-19T10:29:59;101805.30;;;13.08;47.21
56681;BME280;42558;52.388;13.390;2023-04-19T10:32:36;101796.83;;;14.18;46.43
56681;BME280;42558;52.388;13.390;2023-04-19T10:40:57;101787.39;;;13.70;45.13
56681;BME280;42558;52.388;13.390;2023-04-19T10:43:33;101789.56;;;13.00;45.77
56681;BME280;42558;52.388;13.390;2023-04-19T10:49:03;101787.61;;;11.49;49.10
56681;BME280;42558;52.388;13.390;2023-04-19T10:51:34;101781.95;;;11.74;49.42
56681;BME280;42558;52.388;13.390;2023-04-19T10:57:06;101778.89;;;12.38;48.01
56681;BME280;42558;52.388;13.390;2023-04-19T10:59:38;101776.24;;;12.15;48.32
56681;BME280;42558;52.388;13.390;2023-04-19T11:07:21;101789.64;;;11.45;48.99
56681;BME280;42558;52.388;13.390;2023-04-19T11:09:51;101779.17;;;11.83;49.00
56681;BME280;42558;52.388;13.390;2023-04-19T11:12:21;101777.64;;;11.92;48.84
56681;BME280;42558;52.388;13.390;2023-04-19T11:14:57;101773.35;;;12.34;48.33
56681;BME280;42558;52.388;13.390;2023-04-19T11:17:30;101765.83;;;12.06;47.69
56681;BME280;42558;52.388;13.390;2023-04-19T11:20:10;101760.53;;;12.45;48.19
56681;BME280;42558;52.388;13.390;2023-04-19T11:22:44;101759.61;;;12.43;48.12
56681;BME280;42558;52.388;13.390;2023-04-19T11:25:20;101756.44;;;12.93;47.55
56681;BME280;42558;52.388;13.390;2023-04-19T11:27:52;101754.30;;;12.11;47.88
56681;BME280;42558;52.388;13.390;2023-04-19T11:30:28;101762.24;;;11.76;49.25
56681;BME280;42558;52.388;13.390;2023-04-19T11:32:58;101755.42;;;12.29;49.07
56681;BME280;42558;52.388;13.390;2023-04-19T11:35:29;101754.77;;;12.64;48.60
56681;BME280;42558;52.388;13.390;2023-04-19T11:37:58;101749.44;;;12.54;47.81
56681;BME280;42558;52.388;13.390;2023-04-19T11:40:27;101739.23;;;12.00;48.66
56681;BME280;42558;52.388;13.390;2023-04-19T11:42:58;101743.94;;;11.63;49.94
56681;BME280;42558;52.388;13.390;2023-04-19T11:45:35;101739.00;;;11.97;49.69
56681;BME280;42558;52.388;13.390;2023-04-19T11:48:13;101743.93;;;11.83;49.18
56681;BME280;42558;52.388;13.390;2023-04-19T11:50:45;101742.18;;;11.76;49.89
56681;BME280;42558;52.388;13.390;2023-04-19T11:53:21;101740.98;;;11.64;49.36
56681;BME280;42558;52.388;13.390;2023-04-19T11:55:52;101746.13;;;11.38;49.75
56681;BME280;42558;52.388;13.390;2023-04-19T11:58:27;101734.73;;;11.60;50.11
56681;BME280;42558;52.388;13.390;2023-04-19T12:01:06;101733.87;;;11.62;50.17
56681;BME280;42558;52.388;13.390;2023-04-19T12:03:47;101734.98;;;11.50;49.65
56681;BME280;42558;52.388;13.390;2023-04-19T12:08:54;101732.65;;;11.34;50.13
56681;BME280;42558;52.388;13.390;2023-04-19T12:11:41;101727.73;;;11.22;46.89
56681;BME280;42558;52.388;13.390;2023-04-19T12:14:14;101714.67;;;11.54;46.81
56681;BME280;42558;52.388;13.390;2023-04-19T12:16:44;101712.13;;;11.87;47.71
56681;BME280;42558;52.388;13.390;2023-04-19T12:19:18;101714.02;;;12.23;47.18
56681;BME280;42558;52.388;13.390;2023-04-19T12:21:51;101706.41;;;11.98;47.39
56681;BME280;42558;52.388;13.390;2023-04-19T12:24:19;101709.11;;;11.78;47.17
56681;BME280;42558;52.388;13.390;2023-04-19T12:26:55;101710.61;;;11.75;46.24
56681;BME280;42558;52.388;13.390;2023-04-19T12:29:26;101704.45;;;12.20;45.97
56681;BME280;42558;52.388;13.390;2023-04-19T12:31:56;101702.41;;;12.24;45.86
56681;BME280;42558;52.388;13.390;2023-04-19T12:34:27;101702.98;;;11.81;46.26
56681;BME280;42558;52.388;13.390;2023-04-19T12:36:57;101714.39;;;11.43;47.97
56681;BME280;42558;52.388;13.390;2023-04-19T12:39:27;101715.84;;;11.45;48.42
56681;BME280;42558;52.388;13.390;2023-04-19T12:41:57;101711.02;;;11.63;48.00
56681;BME280;42558;52.388;13.390;2023-04-19T12:44:27;101710.34;;;11.64;47.63
56681;BME280;42558;52.388;13.390;2023-04-19T12:46:57;101704.23;;;11.52;46.63
56681;BME280;42558;52.388;13.390;2023-04-19T12:49:27;101699.00;;;11.55;47.40
56681;BME280;42558;52.388;13.390;2023-04-19T12:51:57;101694.48;;;11.64;46.80
56681;BME280;42558;52.388;13.390;2023-04-19T12:54:26;101680.63;;;11.67;47.20
56681;BME280;42558;52.388;13.390;2023-04-19T12:56:56;101678.88;;;11.88;48.14
56681;BME280;42558;52.388;13.390;2023-04-19T12:59:26;101674.16;;;12.06;48.08
56681;BME280;42558;52.388;13.390;2023-04-19T13:01:56;101666.28;;;11.70;47.40
56681;BME280;42558;52.388;13.390;2023-04-19T13:04:26;101664.23;;;11.59;48.64
56681;BME280;42558;52.388;13.390;2023-04-19T13:06:57;101664.73;;;11.86;48.60
56681;BME280;42558;52.388;13.390;2023-04-19T13:09:27;101664.32;;;11.62;47.95
56681;BME280;42558;52.388;13.390;2023-04-19T13:11:57;101659.70;;;11.38;48.88
56681;BME280;42558;52.388;13.390;2023-04-19T13:14:28;101659.27;;;11.51;49.21
56681;BME280;42558;52.388;13.390;2023-04-19T13:16:57;101658.83;;;11.54;49.66
56681;BME280;42558;52.388;13.390;2023-04-19T13:19:27;101645.54;;;11.50;48.60
56681;BME280;42558;52.388;13.390;2023-04-19T13:21:57;101642.86;;;11.49;47.37
56681;BME280;42558;52.388;13.390;2023-04-19T13:24:27;101644.64;;;11.57;47.23
56681;BME280;42558;52.388;13.390;2023-04-19T13:26:57;101638.34;;;11.59;46.90